createdAt,value
2023-04-27T00:00:37.751Z,93.0418
2023-04-27T00:01:38.293Z,93.4614
2023-04-27T00:02:39.575Z,93.6777
2023-04-27T00:03:40.003Z,93.8699
2023-04-27T00:04:40.303Z,94.1367
2023-04-27T00:05:40.354Z,94.3795
2023-04-27T00:06:40.332Z,94.5038
2023-04-27T00:07:40.972Z,94.3955
2023-04-27T00:08:41.528Z,94.3825
2023-04-27T00:09:41.938Z,94.3364
2023-04-27T00:10:42.611Z,94.6962
2023-04-27T00:11:43.233Z,94.9940
2023-04-27T00:12:43.838Z,95.1269
2023-04-27T00:13:44.376Z,95.4768
2023-04-27T00:14:44.933Z,95.5231
2023-04-27T00:15:45.485Z,95.6392
2023-04-27T00:16:46.074Z,95.7965
2023-04-27T00:17:46.872Z,95.9350
2023-04-27T00:18:47.651Z,95.9943
2023-04-27T00:19:47.629Z,96.0142
2023-04-27T00:20:48.087Z,96.0211
2023-04-27T00:21:48.863Z,96.0469
2023-04-27T00:22:49.389Z,96.1491
2023-04-27T00:23:50.020Z,96.1442
2023-04-27T00:24:50.691Z,96.2393
2023-04-27T00:25:51.413Z,96.3089
2023-04-27T00:26:52.058Z,96.3871
2023-04-27T00:27:52.665Z,96.4265
2023-04-27T00:28:53.083Z,96.4533
2023-04-27T00:29:53.689Z,96.5687
2023-04-27T00:30:54.176Z,96.5823
2023-04-27T00:31:54.956Z,96.6459
2023-04-27T00:32:55.836Z,96.5431
2023-04-27T00:33:56.415Z,96.6630
2023-04-27T00:34:57.063Z,96.6958
2023-04-27T00:35:57.782Z,96.5699
2023-04-27T00:36:58.298Z,96.5617
2023-04-27T00:37:58.893Z,96.5299
2023-04-27T00:38:59.287Z,96.5741
2023-04-27T00:39:59.820Z,96.5254
2023-04-27T00:41:00.467Z,96.4622
2023-04-27T00:42:00.854Z,96.4829
2023-04-27T00:43:01.652Z,96.4560
2023-04-27T00:44:02.251Z,96.4067
2023-04-27T00:45:02.675Z,96.2129
2023-04-27T00:46:03.831Z,96.1095
2023-04-27T00:47:04.358Z,96.1001
2023-04-27T00:48:05.347Z,96.1760
2023-04-27T00:49:05.906Z,96.0965
2023-04-27T00:50:07.178Z,96.3206
2023-04-27T00:51:07.897Z,96.4421
2023-04-27T00:52:08.735Z,96.4328
2023-04-27T00:53:09.231Z,96.4316
2023-04-27T00:54:09.852Z,96.4420
2023-04-27T00:55:10.566Z,96.4794
2023-04-27T00:56:10.986Z,96.3896
2023-04-27T00:57:11.574Z,96.3541
2023-04-27T00:58:12.033Z,96.2047
2023-04-27T00:59:12.965Z,96.1918
2023-04-27T01:00:13.772Z,96.2473
2023-04-27T01:01:14.431Z,96.1859
2023-04-27T01:04:16.368Z,96.2004
2023-04-27T01:05:16.502Z,96.3051
2023-04-27T01:06:17.028Z,96.3636
2023-04-27T01:07:17.649Z,96.2053
2023-04-27T01:08:18.835Z,96.4460
2023-04-27T01:09:19.468Z,96.5490
2023-04-27T01:10:19.545Z,96.5996
2023-04-27T01:11:20.194Z,96.6967
2023-04-27T01:12:20.737Z,96.8030
2023-04-27T01:13:21.386Z,96.8184
2023-04-27T01:14:22.116Z,96.7452
2023-04-27T01:15:22.540Z,96.8855
2023-04-27T01:16:23.191Z,96.9861
2023-04-27T01:17:23.935Z,97.0788
2023-04-27T01:18:24.861Z,97.0674
2023-04-27T01:19:25.789Z,97.1573
2023-04-27T01:20:26.304Z,97.2212
2023-04-27T01:21:27.280Z,97.1576
2023-04-27T01:22:27.895Z,97.1908
2023-04-27T01:23:28.331Z,97.1897
2023-04-27T01:24:29.035Z,97.1947
2023-04-27T01:25:29.527Z,97.2553
2023-04-27T01:26:30.169Z,97.2512
2023-04-27T01:27:30.941Z,97.2309
2023-04-27T01:28:31.361Z,97.2381
2023-04-27T01:29:32.151Z,97.1796
2023-04-27T01:30:33.270Z,97.1260
2023-04-27T01:31:33.416Z,97.1993
2023-04-27T01:32:33.758Z,97.1503
2023-04-27T01:33:34.519Z,97.0803
2023-04-27T01:34:35.069Z,96.9217
2023-04-27T01:35:35.795Z,96.8169
2023-04-27T01:36:36.470Z,96.6769
2023-04-27T01:37:37.397Z,96.4633
2023-04-27T01:38:38.020Z,96.3827
2023-04-27T01:39:38.462Z,96.3346
2023-04-27T01:40:39.266Z,96.3018
2023-04-27T01:41:39.731Z,96.4573
2023-04-27T01:42:40.264Z,96.6098
2023-04-27T01:43:40.931Z,96.7112
2023-04-27T01:44:41.402Z,96.7948
2023-04-27T01:45:42.043Z,96.9710
2023-04-27T01:46:43.129Z,97.0761
2023-04-27T01:47:43.808Z,97.1219
2023-04-27T01:48:44.741Z,97.2566
2023-04-27T01:49:45.953Z,97.3110
2023-04-27T01:50:46.353Z,97.3565
2023-04-27T01:51:46.897Z,97.2757
2023-04-27T01:52:47.427Z,97.3237
2023-04-27T01:53:48.181Z,97.5113
2023-04-27T01:54:48.659Z,97.5950
2023-04-27T01:55:49.189Z,97.4446
2023-04-27T01:56:50.137Z,97.5449
2023-04-27T01:57:50.873Z,97.6144
2023-04-27T01:58:51.267Z,97.6606
2023-04-27T01:59:51.911Z,97.7470
2023-04-27T02:00:52.193Z,97.7429
2023-04-27T02:01:53.073Z,97.7025
2023-04-27T02:02:53.519Z,97.8125
2023-04-27T02:03:53.567Z,97.7759
2023-04-27T02:04:54.083Z,97.7514
2023-04-27T02:05:54.499Z,97.8077
2023-04-27T02:06:55.429Z,97.9330
2023-04-27T02:07:56.270Z,98.0079
2023-04-27T02:08:56.824Z,98.0299
2023-04-27T02:09:57.404Z,98.1254
2023-04-27T02:10:58.363Z,98.1848
2023-04-27T02:11:59.113Z,98.2172
2023-04-27T02:12:59.726Z,98.2960
2023-04-27T02:14:00.552Z,98.2537
2023-04-27T02:15:01.360Z,98.3031
2023-04-27T02:16:02.180Z,98.3823
2023-04-27T02:17:03.299Z,98.3576
2023-04-27T02:18:04.399Z,98.3752
2023-04-27T02:19:05.300Z,98.3322
2023-04-27T02:20:06.122Z,98.3377
2023-04-27T02:21:06.892Z,98.4309
2023-04-27T02:22:07.597Z,98.4930
2023-04-27T02:23:08.087Z,98.6894
2023-04-27T02:24:08.873Z,98.7871
2023-04-27T02:25:10.289Z,98.8333
2023-04-27T02:26:11.156Z,98.8706
2023-04-27T02:28:11.568Z,98.8597
2023-04-27T02:29:12.619Z,98.8758
2023-04-27T02:30:13.182Z,98.9138
2023-04-27T02:31:14.281Z,98.9121
2023-04-27T02:32:15.345Z,98.9296
2023-04-27T02:33:16.278Z,98.9365
2023-04-27T02:34:16.840Z,98.9733
2023-04-27T02:35:17.975Z,98.9669
2023-04-27T02:36:18.723Z,99.0318
2023-04-27T02:37:19.185Z,99.0346
2023-04-27T02:38:19.993Z,99.0649
2023-04-27T02:39:20.548Z,99.0789
2023-04-27T02:40:21.185Z,99.0745
2023-04-27T02:41:21.937Z,99.0483
2023-04-27T02:42:22.415Z,99.0104
2023-04-27T02:43:23.247Z,99.0425
2023-04-27T02:44:23.901Z,99.0856
2023-04-27T02:45:24.577Z,99.0944
2023-04-27T02:46:25.554Z,99.0700
2023-04-27T02:47:26.436Z,99.0972
2023-04-27T02:48:27.260Z,99.0706
2023-04-27T02:49:27.694Z,99.0521
2023-04-27T02:50:27.900Z,99.0194
2023-04-27T02:51:28.732Z,99.0493
2023-04-27T02:52:29.302Z,99.0487
2023-04-27T02:53:30.333Z,99.0098
2023-04-27T02:54:30.929Z,99.0335
2023-04-27T02:55:31.538Z,99.0291
2023-04-27T02:56:32.396Z,99.0476
2023-04-27T02:57:33.133Z,99.0075
2023-04-27T02:58:33.603Z,99.0347
2023-04-27T02:59:34.763Z,99.0445
2023-04-27T03:00:35.573Z,99.1376
2023-04-27T03:01:36.545Z,99.0641
2023-04-27T03:02:36.595Z,99.1378
2023-04-27T03:03:37.594Z,99.2115
2023-04-27T03:04:38.695Z,99.2207
2023-04-27T03:06:38.797Z,99.1343
2023-04-27T03:07:39.451Z,99.0648
2023-04-27T03:08:40.159Z,99.1170
2023-04-27T03:09:40.865Z,98.9966
2023-04-27T03:10:41.513Z,99.0512
2023-04-27T03:11:42.092Z,99.0789
2023-04-27T03:12:42.814Z,99.1799
2023-04-27T03:13:43.510Z,99.1594
2023-04-27T03:14:44.015Z,99.1892
2023-04-27T03:15:44.034Z,99.1606
2023-04-27T03:16:44.696Z,99.1897
2023-04-27T03:17:45.545Z,99.1583
2023-04-27T03:18:46.245Z,99.1511
2023-04-27T03:19:47.440Z,99.1658
2023-04-27T03:20:47.952Z,99.1660
2023-04-27T03:21:48.727Z,99.1890
2023-04-27T03:22:49.283Z,99.2047
2023-04-27T03:23:49.946Z,99.2033
2023-04-27T03:24:50.633Z,99.2136
2023-04-27T03:25:51.183Z,99.1966
2023-04-27T03:26:51.834Z,99.1457
2023-04-27T03:27:52.287Z,99.2306
2023-04-27T03:28:54.724Z,99.2581
2023-04-27T03:29:55.437Z,99.2840
2023-04-27T03:30:55.836Z,99.2818
2023-04-27T03:31:56.896Z,99.1926
2023-04-27T03:32:57.453Z,99.1399
2023-04-27T03:33:57.873Z,99.2735
2023-04-27T03:34:58.536Z,99.2890
2023-04-27T03:35:59.114Z,99.2279
2023-04-27T03:36:59.571Z,99.2429
2023-04-27T03:38:00.215Z,99.3173
2023-04-27T03:39:00.709Z,99.2683
2023-04-27T03:40:01.783Z,99.2946
2023-04-27T03:41:02.470Z,99.3855
2023-04-27T03:42:02.909Z,99.4386
2023-04-27T03:43:03.824Z,99.4915
2023-04-27T03:44:04.462Z,99.4335
2023-04-27T03:45:04.944Z,99.4174
2023-04-27T03:46:06.144Z,99.4542
2023-04-27T03:47:06.901Z,99.4986
2023-04-27T03:48:08.141Z,99.5110
2023-04-27T03:49:08.757Z,99.5378
2023-04-27T03:50:08.873Z,99.5828
2023-04-27T03:51:09.558Z,99.6232
2023-04-27T03:52:10.268Z,99.6712
2023-04-27T03:53:10.988Z,99.6712
2023-04-27T03:54:11.837Z,99.6444
2023-04-27T03:55:12.579Z,99.5729
2023-04-27T03:56:13.167Z,99.5266
2023-04-27T03:57:13.855Z,99.5728
2023-04-27T03:58:14.680Z,99.5966
2023-04-27T03:59:15.487Z,99.6807
2023-04-27T04:00:15.140Z,99.6969
2023-04-27T04:01:16.142Z,99.6545
2023-04-27T04:02:17.130Z,99.6784
2023-04-27T04:03:18.384Z,99.7138
2023-04-27T04:04:18.648Z,99.7154
2023-04-27T04:05:19.313Z,99.6183
2023-04-27T04:12:29.156Z,99.7478
2023-04-27T04:13:30.177Z,99.7291
2023-04-27T04:19:37.782Z,99.7351
2023-04-27T04:20:38.542Z,99.7220
2023-04-27T04:21:39.570Z,99.7318
2023-04-27T04:22:40.090Z,99.7370
2023-04-27T04:31:54.283Z,99.7870
2023-04-27T04:32:55.138Z,99.8059
2023-04-27T04:33:55.845Z,99.7577
2023-04-27T04:34:56.347Z,99.7369
2023-04-27T04:35:56.843Z,99.7870
2023-04-27T04:36:57.881Z,99.8119
2023-04-27T04:38:00.238Z,99.8639
2023-04-27T04:39:02.177Z,99.7653
2023-04-27T04:40:03.446Z,99.7276
2023-04-27T04:41:04.654Z,99.7464
2023-04-27T04:42:05.476Z,99.7171
2023-04-27T04:43:05.736Z,99.6393
2023-04-27T04:44:06.246Z,99.7185
2023-04-27T04:45:08.530Z,99.7188
2023-04-27T04:46:10.767Z,99.7266
2023-04-27T04:47:12.114Z,99.7493
2023-04-27T04:48:13.149Z,99.6725
2023-04-27T04:49:14.236Z,99.6780
2023-04-27T04:50:15.515Z,99.7274
2023-04-27T04:51:14.483Z,99.7085
2023-04-27T04:52:25.982Z,99.7976
2023-04-27T04:53:26.895Z,99.7858
2023-04-27T04:54:28.080Z,99.8102
2023-04-27T04:55:28.512Z,99.7548
2023-04-27T04:56:29.515Z,99.6902
2023-04-27T04:57:31.797Z,99.6054
2023-04-27T04:58:33.135Z,99.7049
2023-04-27T04:59:33.333Z,99.6900
2023-04-27T05:00:33.990Z,99.7069
2023-04-27T05:01:34.927Z,99.6649
2023-04-27T05:02:36.176Z,99.6061
2023-04-27T05:03:37.799Z,99.6008
2023-04-27T05:04:38.622Z,99.6226
2023-04-27T05:06:38.929Z,99.6449
2023-04-27T05:07:39.682Z,99.6663
2023-04-27T05:08:40.019Z,99.5524
2023-04-27T05:09:40.680Z,99.5783
2023-04-27T05:10:41.822Z,99.4369
2023-04-27T05:11:42.678Z,99.4628
2023-04-27T05:12:43.712Z,99.4192
2023-04-27T05:13:44.591Z,99.1320
2023-04-27T05:14:45.046Z,99.0549
2023-04-27T05:15:45.566Z,99.2111
2023-04-27T05:21:54.435Z,99.2655
2023-04-27T05:22:56.120Z,99.3570
2023-04-27T05:23:56.677Z,99.3602
2023-04-27T05:25:09.325Z,99.4460
2023-04-27T05:26:10.334Z,99.4211
2023-04-27T05:27:10.373Z,99.3801
2023-04-27T05:28:11.890Z,99.4098
2023-04-27T05:29:12.255Z,99.3126
2023-04-27T05:30:13.029Z,99.2718
2023-04-27T05:31:14.424Z,99.2735
2023-04-27T05:32:15.791Z,99.3306
2023-04-27T05:33:16.575Z,99.3127
2023-04-27T05:34:17.902Z,99.3989
2023-04-27T05:35:18.244Z,99.3703
2023-04-27T05:36:19.245Z,99.2582
2023-04-27T05:37:20.561Z,99.3174
2023-04-27T05:38:21.317Z,99.4294
2023-04-27T05:39:22.166Z,99.4584
2023-04-27T05:40:22.976Z,99.4555
2023-04-27T05:41:24.182Z,99.4561
2023-04-27T05:44:26.383Z,99.3996
2023-04-27T05:45:28.380Z,99.4166
2023-04-27T05:46:32.867Z,99.4172
2023-04-27T05:48:29.932Z,99.4970
2023-04-27T05:49:30.689Z,99.5861
2023-04-27T05:50:31.187Z,99.6031
2023-04-27T05:56:38.911Z,99.5472
2023-04-27T05:57:39.749Z,99.5492
2023-04-27T05:58:40.099Z,99.5952
2023-04-27T05:59:40.634Z,99.5869
2023-04-27T06:00:41.452Z,99.5020
2023-04-27T06:01:42.306Z,99.4979
2023-04-27T06:02:42.626Z,99.5276
2023-04-27T06:03:42.826Z,99.4433
2023-04-27T06:04:43.229Z,99.3778
2023-04-27T06:05:43.255Z,99.3763
2023-04-27T06:06:44.624Z,99.3510
2023-04-27T06:07:45.390Z,99.3337
2023-04-27T06:08:46.345Z,99.2870
2023-04-27T06:09:47.565Z,99.2598
2023-04-27T06:10:48.114Z,99.2996
2023-04-27T06:11:48.976Z,99.2910
2023-04-27T06:12:49.572Z,99.3560
2023-04-27T06:13:50.224Z,99.2959
2023-04-27T06:14:51.312Z,99.2821
2023-04-27T06:15:52.029Z,99.2781
2023-04-27T06:16:52.832Z,99.3627
2023-04-27T06:17:53.777Z,99.3185
2023-04-27T06:18:54.405Z,99.2385
2023-04-27T06:19:55.118Z,99.1738
2023-04-27T06:20:56.097Z,99.0693
2023-04-27T06:21:57.157Z,99.1470
2023-04-27T06:22:57.745Z,98.9693
2023-04-27T06:23:58.696Z,98.8453
2023-04-27T06:24:59.466Z,98.8717
2023-04-27T06:26:01.138Z,98.8248
2023-04-27T06:27:00.330Z,98.7177
2023-04-27T06:28:01.016Z,98.2990
2023-04-27T06:29:01.848Z,98.1175
2023-04-27T06:30:02.358Z,97.8581
2023-04-27T06:31:03.417Z,97.6287
2023-04-27T06:32:04.794Z,97.4044
2023-04-27T06:33:05.702Z,97.4441
2023-04-27T06:34:06.402Z,97.3700
2023-04-27T06:35:07.147Z,97.3787
2023-04-27T06:36:08.149Z,97.6775
2023-04-27T06:37:09.075Z,97.8441
2023-04-27T06:38:10.002Z,97.5413
2023-04-27T06:39:10.482Z,97.1986
2023-04-27T06:40:11.429Z,97.0001
2023-04-27T06:41:12.057Z,96.9625
2023-04-27T06:42:12.796Z,96.7355
2023-04-27T06:43:13.602Z,96.5273
2023-04-27T06:44:14.837Z,96.4843
2023-04-27T06:45:15.489Z,96.4107
2023-04-27T06:46:16.392Z,96.2990
2023-04-27T06:47:17.076Z,96.4551
2023-04-27T06:48:17.913Z,96.4401
2023-04-27T06:49:18.645Z,96.2116
2023-04-27T06:50:19.083Z,96.5583
2023-04-27T06:51:19.698Z,96.2841
2023-04-27T06:52:20.397Z,96.1696
2023-04-27T06:53:20.741Z,96.4300
2023-04-27T06:54:21.424Z,96.2571
2023-04-27T06:55:21.912Z,96.3022
2023-04-27T06:56:22.155Z,96.3548
2023-04-27T06:57:22.812Z,96.2394
2023-04-27T06:58:23.555Z,95.9641
2023-04-27T06:59:24.893Z,95.6693
2023-04-27T07:00:25.682Z,95.5780
2023-04-27T07:01:26.537Z,96.1585
2023-04-27T07:02:28.191Z,95.4949
2023-04-27T07:03:28.248Z,95.0842
2023-04-27T07:04:29.253Z,95.6660
2023-04-27T07:05:29.119Z,96.0441
2023-04-27T07:06:29.675Z,96.2682
2023-04-27T07:07:30.365Z,96.4735
2023-04-27T07:08:30.875Z,96.4765
2023-04-27T07:09:31.622Z,95.9453
2023-04-27T07:10:32.178Z,96.1638
2023-04-27T07:11:32.960Z,96.1124
2023-04-27T07:12:33.374Z,95.4606
2023-04-27T07:13:34.012Z,95.4944
2023-04-27T07:14:34.660Z,95.6554
2023-04-27T07:15:35.164Z,95.6289
2023-04-27T07:16:36.065Z,95.6047
2023-04-27T07:17:37.151Z,95.3398
2023-04-27T07:18:37.830Z,95.0772
2023-04-27T07:19:38.980Z,94.7419
2023-04-27T07:20:39.761Z,95.1212
2023-04-27T07:21:40.462Z,94.6902
2023-04-27T07:22:41.124Z,93.9326
2023-04-27T07:23:41.619Z,93.4095
2023-04-27T07:24:42.177Z,93.9457
2023-04-27T07:25:42.876Z,94.2203
2023-04-27T07:26:43.409Z,93.8038
2023-04-27T07:27:44.105Z,93.8189
2023-04-27T07:28:44.732Z,93.4990
2023-04-27T07:29:45.197Z,93.3726
2023-04-27T07:30:45.884Z,94.0086
2023-04-27T07:31:46.818Z,93.9922
2023-04-27T07:32:47.729Z,93.0239
2023-04-27T07:33:48.517Z,93.6934
2023-04-27T07:34:53.703Z,93.1877
2023-04-27T07:35:50.310Z,92.8842
2023-04-27T07:36:51.066Z,93.0798
2023-04-27T07:37:51.805Z,93.1734
2023-04-27T07:38:52.285Z,92.3944
2023-04-27T07:39:53.019Z,91.6810
2023-04-27T07:40:53.254Z,90.5199
2023-04-27T07:41:53.884Z,90.5013
2023-04-27T07:42:54.598Z,88.1574
2023-04-27T07:43:55.047Z,89.6046
2023-04-27T07:44:55.809Z,90.2682
2023-04-27T07:45:56.669Z,89.7501
2023-04-27T07:46:57.756Z,90.0860
2023-04-27T07:47:58.994Z,90.6787
2023-04-27T07:48:58.751Z,90.5704
2023-04-27T07:49:59.261Z,90.2105
2023-04-27T07:50:59.922Z,90.6556
2023-04-27T07:52:00.387Z,90.2703
2023-04-27T07:53:01.058Z,90.4739
2023-04-27T07:54:01.887Z,90.6310
2023-04-27T07:55:02.753Z,89.0970
2023-04-27T07:56:03.551Z,88.4347
2023-04-27T07:57:04.281Z,89.1223
2023-04-27T07:58:04.872Z,88.9569
2023-04-27T07:59:05.566Z,88.2702
2023-04-27T08:00:06.714Z,88.0727
2023-04-27T08:01:07.538Z,87.7281
2023-04-27T08:02:19.697Z,87.7738
2023-04-27T08:03:12.509Z,86.8248
2023-04-27T08:04:12.646Z,88.0713
2023-04-27T08:05:12.925Z,89.1891
2023-04-27T08:06:13.201Z,88.4871
2023-04-27T08:07:14.072Z,88.1410
2023-04-27T08:08:14.899Z,87.1699
2023-04-27T08:09:14.758Z,86.1372
2023-04-27T08:10:14.534Z,85.8608
2023-04-27T08:11:15.199Z,86.8253
2023-04-27T08:12:16.105Z,88.3886
2023-04-27T08:13:16.665Z,85.6112
2023-04-27T08:14:17.169Z,85.7505
2023-04-27T08:15:18.247Z,88.5345
2023-04-27T08:16:18.930Z,89.8887
2023-04-27T08:17:20.124Z,89.8247
2023-04-27T08:18:21.176Z,91.2266
2023-04-27T08:19:22.066Z,91.5629
2023-04-27T08:20:22.844Z,91.1025
2023-04-27T08:21:23.528Z,91.9771
2023-04-27T08:22:24.190Z,92.2089
2023-04-27T08:23:24.998Z,92.3589
2023-04-27T08:24:25.657Z,91.1380
2023-04-27T08:25:26.373Z,89.4059
2023-04-27T08:26:28.543Z,87.4499
2023-04-27T08:27:29.255Z,87.8218
2023-04-27T08:28:29.988Z,86.7526
2023-04-27T08:29:30.969Z,86.7691
2023-04-27T08:30:31.718Z,86.5893
2023-04-27T08:31:32.474Z,85.5149
2023-04-27T08:32:33.884Z,85.5674
2023-04-27T08:33:34.736Z,84.2458
2023-04-27T08:34:35.240Z,83.7274
2023-04-27T08:35:35.981Z,85.7068
2023-04-27T08:36:36.548Z,88.1912
2023-04-27T08:37:37.273Z,87.2668
2023-04-27T08:38:37.944Z,85.1748
2023-04-27T08:39:38.941Z,85.4158
2023-04-27T08:40:39.655Z,84.7087
2023-04-27T08:41:40.311Z,84.9056
2023-04-27T08:42:41.035Z,84.7185
2023-04-27T08:43:41.858Z,84.8502
2023-04-27T08:44:42.955Z,86.0782
2023-04-27T08:45:43.499Z,85.9080
2023-04-27T08:46:44.719Z,83.7832
2023-04-27T08:47:46.159Z,85.0605
2023-04-27T08:48:47.004Z,84.8064
2023-04-27T08:49:47.207Z,85.1164
2023-04-27T08:50:47.447Z,85.8036
2023-04-27T08:51:48.181Z,85.7103
2023-04-27T08:52:48.930Z,85.8076
2023-04-27T08:53:49.546Z,85.8885
2023-04-27T08:54:50.255Z,85.5297
2023-04-27T08:55:51.065Z,84.6671
2023-04-27T08:56:51.650Z,85.0543
2023-04-27T08:57:52.356Z,83.4599
2023-04-27T08:58:52.824Z,84.5536
2023-04-27T08:59:53.480Z,86.4494
2023-04-27T09:00:54.443Z,85.1954
2023-04-27T09:01:55.520Z,83.4561
2023-04-27T09:02:56.000Z,83.5084
2023-04-27T09:03:56.280Z,83.8201
2023-04-27T09:04:57.316Z,82.9445
2023-04-27T09:06:06.005Z,84.7460
2023-04-27T09:07:04.486Z,84.5245
2023-04-27T09:08:05.144Z,84.2387
2023-04-27T09:09:05.886Z,80.4965
2023-04-27T09:10:07.164Z,79.6322
2023-04-27T09:11:07.742Z,81.7009
2023-04-27T09:12:08.365Z,83.4707
2023-04-27T09:13:08.893Z,82.3499
2023-04-27T09:14:09.554Z,82.6320
2023-04-27T09:15:10.264Z,82.9227
2023-04-27T09:16:11.029Z,82.8324
2023-04-27T09:17:11.086Z,82.4629
2023-04-27T09:18:11.919Z,80.8472
2023-04-27T09:19:12.890Z,79.0066
2023-04-27T09:20:13.692Z,78.9150
2023-04-27T09:21:14.796Z,76.5462
2023-04-27T09:22:15.159Z,74.2909
2023-04-27T09:23:15.884Z,74.2415
2023-04-27T09:24:16.615Z,73.7270
2023-04-27T09:25:17.089Z,75.4153
2023-04-27T09:26:17.853Z,74.7118
2023-04-27T09:27:18.696Z,75.1912
2023-04-27T09:28:19.541Z,74.9369
2023-04-27T09:29:20.220Z,74.3223
2023-04-27T09:30:21.044Z,72.5547
2023-04-27T09:31:21.835Z,73.2872
2023-04-27T09:32:23.006Z,74.9064
2023-04-27T09:33:23.858Z,74.9968
2023-04-27T09:34:24.838Z,73.6674
2023-04-27T09:35:25.506Z,74.3283
2023-04-27T09:36:26.004Z,74.2460
2023-04-27T09:37:26.689Z,76.0236
2023-04-27T09:38:26.776Z,78.1459
2023-04-27T09:39:27.477Z,75.9503
2023-04-27T09:40:28.160Z,74.5000
2023-04-27T09:41:28.638Z,74.5866
2023-04-27T09:42:29.313Z,75.1200
2023-04-27T09:43:30.121Z,77.4526
2023-04-27T09:44:30.855Z,76.6159
2023-04-27T09:45:31.609Z,72.2060
2023-04-27T09:46:32.611Z,69.8697
2023-04-27T09:47:33.283Z,71.9458
2023-04-27T09:48:34.112Z,76.5682
2023-04-27T09:49:35.241Z,74.9102
2023-04-27T09:50:37.899Z,75.8796
2023-04-27T09:51:36.417Z,74.2064
2023-04-27T09:52:37.154Z,74.7679
2023-04-27T09:53:37.918Z,72.5149
2023-04-27T09:54:38.562Z,72.2578
2023-04-27T09:55:39.087Z,71.8347
2023-04-27T09:56:39.748Z,70.3351
2023-04-27T09:57:40.222Z,68.1075
2023-04-27T09:58:40.919Z,68.5009
2023-04-27T09:59:41.794Z,68.1426
2023-04-27T10:00:42.311Z,68.8713
2023-04-27T10:01:43.528Z,69.9853
2023-04-27T10:02:53.051Z,72.5281
2023-04-27T10:03:48.640Z,71.4298
2023-04-27T10:04:49.067Z,73.9147
2023-04-27T10:05:50.000Z,71.6862
2023-04-27T10:06:50.621Z,71.0979
2023-04-27T10:07:51.341Z,70.0341
2023-04-27T10:08:51.858Z,71.1232
2023-04-27T10:09:52.038Z,65.7022
2023-04-27T10:10:53.148Z,66.7688
2023-04-27T10:11:53.636Z,65.8729
2023-04-27T10:12:54.394Z,65.6232
2023-04-27T10:13:55.117Z,61.4433
2023-04-27T10:14:56.095Z,62.2379
2023-04-27T10:15:56.827Z,62.1606
2023-04-27T10:16:58.413Z,63.2255
2023-04-27T10:17:59.340Z,62.6493
2023-04-27T10:19:00.511Z,65.6144
2023-04-27T10:20:01.392Z,63.2840
2023-04-27T10:21:02.037Z,61.0424
2023-04-27T10:22:02.779Z,61.2467
2023-04-27T10:23:03.410Z,61.8467
2023-04-27T10:24:04.077Z,60.1870
2023-04-27T10:25:04.732Z,60.8589
2023-04-27T10:26:05.285Z,60.7116
2023-04-27T10:27:05.898Z,61.3063
2023-04-27T10:28:06.573Z,61.4390
2023-04-27T10:29:07.132Z,62.3685
2023-04-27T10:30:07.992Z,61.9611
2023-04-27T10:31:08.604Z,62.5183
2023-04-27T10:32:09.395Z,62.3411
2023-04-27T10:33:09.627Z,62.4221
2023-04-27T10:34:10.244Z,61.3277
2023-04-27T10:35:10.928Z,59.4142
2023-04-27T10:36:11.448Z,59.4265
2023-04-27T10:37:12.155Z,57.6298
2023-04-27T10:38:12.749Z,59.1541
2023-04-27T10:39:13.355Z,58.3210
2023-04-27T10:40:28.572Z,58.6313
2023-04-27T10:41:29.267Z,58.2757
2023-04-27T10:42:29.813Z,62.0082
2023-04-27T10:43:30.444Z,59.4495
2023-04-27T10:44:31.263Z,59.6454
2023-04-27T10:45:32.102Z,57.9561
2023-04-27T10:46:31.946Z,56.2949
2023-04-27T10:47:32.498Z,56.1936
2023-04-27T10:48:33.759Z,55.9961
2023-04-27T10:49:34.424Z,55.8943
2023-04-27T10:50:34.935Z,56.0702
2023-04-27T10:51:35.603Z,56.5930
2023-04-27T10:52:36.264Z,56.9976
2023-04-27T10:53:36.830Z,56.4308
2023-04-27T10:54:37.575Z,55.8595
2023-04-27T10:55:38.087Z,55.7565
2023-04-27T10:56:38.762Z,56.2088
2023-04-27T10:57:39.547Z,57.0787
2023-04-27T10:58:48.907Z,56.7688
2023-04-27T10:59:41.243Z,56.9215
2023-04-27T11:00:41.899Z,57.0156
2023-04-27T11:01:42.618Z,58.7942
2023-04-27T11:02:43.820Z,55.9602
2023-04-27T11:03:45.857Z,55.0731
2023-04-27T11:04:45.872Z,55.4245
2023-04-27T11:05:46.713Z,55.0621
2023-04-27T11:06:47.244Z,55.0401
2023-04-27T11:07:47.894Z,54.9250
2023-04-27T11:08:48.511Z,54.8476
2023-04-27T11:09:48.962Z,54.8959
2023-04-27T11:10:49.715Z,55.5846
2023-04-27T11:11:50.697Z,56.3316
2023-04-27T11:12:51.197Z,56.3157
2023-04-27T11:13:51.907Z,56.0154
2023-04-27T11:14:52.479Z,55.1902
2023-04-27T11:15:53.549Z,55.7866
2023-04-27T11:16:54.700Z,55.2245
2023-04-27T11:17:55.479Z,54.6957
2023-04-27T11:18:57.907Z,54.5645
2023-04-27T11:19:57.549Z,54.9611
2023-04-27T11:20:58.501Z,55.0933
2023-04-27T11:21:59.291Z,54.7260
2023-04-27T11:22:59.914Z,55.0772
2023-04-27T11:24:00.487Z,56.0483
2023-04-27T11:25:01.534Z,56.3070
2023-04-27T11:26:01.960Z,57.5205
2023-04-27T11:27:02.518Z,57.1867
2023-04-27T11:28:03.206Z,55.6121
2023-04-27T11:29:03.641Z,56.2234
2023-04-27T11:30:03.658Z,55.9096
2023-04-27T11:31:04.315Z,56.3410
2023-04-27T11:32:05.113Z,56.0287
2023-04-27T11:33:06.071Z,56.4427
2023-04-27T11:34:07.924Z,57.3158
2023-04-27T11:35:07.493Z,57.8191
2023-04-27T11:36:08.128Z,55.7612
2023-04-27T11:38:09.488Z,55.1671
2023-04-27T11:39:10.466Z,54.8939
2023-04-27T11:40:11.190Z,54.7183
2023-04-27T11:41:11.879Z,50.7695
2023-04-27T11:42:12.555Z,50.1025
2023-04-27T11:43:13.127Z,49.8674
2023-04-27T11:44:13.812Z,49.9308
2023-04-27T11:45:14.398Z,50.2674
2023-04-27T11:46:15.043Z,49.4209
2023-04-27T11:47:17.524Z,48.5516
2023-04-27T11:48:16.880Z,46.2481
2023-04-27T11:49:18.075Z,45.5165
2023-04-27T11:50:18.864Z,44.9048
2023-04-27T11:51:19.428Z,45.0518
2023-04-27T11:52:20.060Z,45.2232
2023-04-27T11:53:20.807Z,45.4254
2023-04-27T11:54:21.817Z,44.4896
2023-04-27T11:55:22.460Z,45.5040
2023-04-27T11:56:23.232Z,45.7565
2023-04-27T11:57:23.650Z,45.4432
2023-04-27T11:58:24.327Z,45.1598
2023-04-27T11:59:25.239Z,45.0773
2023-04-27T12:00:26.017Z,44.0916
2023-04-27T12:01:36.923Z,44.7136
2023-04-27T12:02:27.962Z,43.6697
2023-04-27T12:03:27.848Z,41.7905
2023-04-27T12:04:29.877Z,42.2126
2023-04-27T12:05:30.161Z,41.6127
2023-04-27T12:06:34.688Z,42.5923
2023-04-27T12:07:35.671Z,44.0311
2023-04-27T12:08:36.446Z,44.1895
2023-04-27T12:09:37.562Z,43.6330
2023-04-27T12:10:38.341Z,44.5296
2023-04-27T12:11:38.946Z,41.7923
2023-04-27T12:12:39.593Z,41.6246
2023-04-27T12:13:40.325Z,42.7399
2023-04-27T12:14:41.120Z,45.6002
2023-04-27T12:15:42.197Z,45.7395
2023-04-27T12:16:43.155Z,43.6768
2023-04-27T12:17:44.291Z,43.8317
2023-04-27T12:18:45.229Z,44.1149
2023-04-27T12:19:45.777Z,41.4201
2023-04-27T12:20:46.532Z,42.1039
2023-04-27T12:21:46.892Z,41.5619
2023-04-27T12:22:47.380Z,39.6194
2023-04-27T12:23:48.051Z,41.6453
2023-04-27T12:24:49.097Z,42.3713
2023-04-27T12:25:49.883Z,40.5186
2023-04-27T12:26:50.524Z,40.8442
2023-04-27T12:27:51.010Z,42.5556
2023-04-27T12:28:51.714Z,43.1871
2023-04-27T12:29:52.214Z,42.1044
2023-04-27T12:30:52.968Z,41.3969
2023-04-27T12:31:54.009Z,40.1313
2023-04-27T12:32:54.596Z,39.5489
2023-04-27T12:33:55.556Z,40.5471
2023-04-27T12:34:56.347Z,41.4706
2023-04-27T12:35:56.862Z,41.3066
2023-04-27T12:36:57.621Z,39.9583
2023-04-27T12:37:58.416Z,42.1334
2023-04-27T12:38:59.046Z,43.0787
2023-04-27T12:39:59.813Z,43.3290
2023-04-27T12:41:00.906Z,40.8898
2023-04-27T12:42:01.541Z,40.1405
2023-04-27T12:43:03.152Z,39.1007
2023-04-27T12:44:03.984Z,39.8093
2023-04-27T12:45:04.273Z,40.5043
2023-04-27T12:46:05.093Z,39.7480
2023-04-27T12:47:05.749Z,39.9740
2023-04-27T12:48:06.457Z,40.4675
2023-04-27T12:49:07.169Z,39.9160
2023-04-27T12:50:07.789Z,39.7984
2023-04-27T12:51:08.396Z,40.1293
2023-04-27T12:52:08.951Z,41.7335
2023-04-27T12:53:09.542Z,42.1942
2023-04-27T12:54:11.281Z,40.5329